createdAt,value
2018-06-28T00:03:04.105Z,15.40
2018-06-28T00:09:10.389Z,15.30
2018-06-28T00:15:16.127Z,15.20
2018-06-28T00:21:22.404Z,15.10
2018-06-28T00:27:28.330Z,14.90
2018-06-28T00:33:34.203Z,14.70
2018-06-28T00:39:40.124Z,14.60
2018-06-28T00:45:45.775Z,14.50
2018-06-28T00:51:52.604Z,14.40
2018-06-28T00:57:58.552Z,14.30
2018-06-28T01:04:04.387Z,14.10
2018-06-28T01:10:10.136Z,14.00
2018-06-28T01:16:16.103Z,13.90
2018-06-28T01:22:21.878Z,13.80
2018-06-28T01:28:27.726Z,13.60
2018-06-28T01:34:33.829Z,13.50
2018-06-28T01:40:39.542Z,13.50
2018-06-28T01:46:45.613Z,13.40
2018-06-28T01:52:51.901Z,13.20
2018-06-28T01:58:57.566Z,13.20
2018-06-28T02:05:03.985Z,13.10
2018-06-28T02:11:09.933Z,13.10
2018-06-28T02:17:15.972Z,13.00
2018-06-28T02:23:22.053Z,12.90
2018-06-28T02:29:28.282Z,12.90
2018-06-28T02:35:34.022Z,12.70
2018-06-28T02:41:39.695Z,12.60
2018-06-28T02:47:45.611Z,12.40
2018-06-28T02:53:52.359Z,12.30
2018-06-28T02:59:58.085Z,12.30
2018-06-28T03:06:04.114Z,12.40
2018-06-28T03:12:09.877Z,12.40
2018-06-28T03:18:15.757Z,12.40
2018-06-28T03:24:22.282Z,12.40
2018-06-28T03:30:28.339Z,12.50
2018-06-28T03:36:34.079Z,12.60
2018-06-28T03:42:40.021Z,12.70
2018-06-28T03:48:45.970Z,12.70
2018-06-28T03:54:52.562Z,12.80
2018-06-28T04:00:58.324Z,12.90
2018-06-28T04:07:04.409Z,13.00
2018-06-28T04:13:10.359Z,13.10
2018-06-28T04:19:16.068Z,13.20
2018-06-28T04:25:23.971Z,13.40
2018-06-28T04:31:29.883Z,13.50
2018-06-28T04:37:35.509Z,13.70
2018-06-28T04:43:41.428Z,13.80
2018-06-28T04:49:47.287Z,13.90
2018-06-28T04:55:53.954Z,14.10
2018-06-28T05:01:59.723Z,14.30
2018-06-28T05:08:05.435Z,14.50
2018-06-28T05:14:11.292Z,14.80
2018-06-28T05:20:17.121Z,15.00
2018-06-28T05:26:23.284Z,15.30
2018-06-28T05:32:29.110Z,15.50
2018-06-28T05:38:34.784Z,15.80
2018-06-28T05:50:45.789Z,16.30
2018-06-28T05:56:52.071Z,16.60
2018-06-28T06:02:57.923Z,16.80
2018-06-28T06:09:04.194Z,17.20
2018-06-28T06:15:09.908Z,17.60
2018-06-28T06:21:15.632Z,17.90
2018-06-28T06:27:22.755Z,18.30
2018-06-28T06:33:29.181Z,18.80
2018-06-28T06:45:40.837Z,18.90
2018-06-28T06:51:47.170Z,19.20
2018-06-28T06:57:53.392Z,19.50
2018-06-28T07:03:59.216Z,19.90
2018-06-28T07:10:05.037Z,20.20
2018-06-28T07:16:10.625Z,20.50
2018-06-28T07:22:16.309Z,20.90
2018-06-28T07:28:23.167Z,21.30
2018-06-28T07:34:28.836Z,21.60
2018-06-28T07:40:34.913Z,22.00
2018-06-28T07:46:40.548Z,22.30
2018-06-28T07:52:46.353Z,22.90
2018-06-28T07:58:52.425Z,23.30
2018-06-28T08:04:58.231Z,23.50
2018-06-28T08:11:03.898Z,23.50
2018-06-28T08:17:10.063Z,23.50
2018-06-28T08:23:15.831Z,23.70
2018-06-28T08:29:21.592Z,23.70
2018-06-28T08:35:28.032Z,23.80
2018-06-28T08:41:33.763Z,24.20
2018-06-28T08:47:39.515Z,24.30
2018-06-28T08:53:45.512Z,24.50
2018-06-28T08:59:51.304Z,25.10
2018-06-28T09:05:57.087Z,25.40
2018-06-28T09:12:02.861Z,25.50
2018-06-28T09:18:09.063Z,25.30
2018-06-28T09:24:14.724Z,25.50
2018-06-28T09:30:21.460Z,25.90
2018-06-28T09:36:27.662Z,26.10
2018-06-28T09:42:33.317Z,26.20
2018-06-28T09:48:39.448Z,26.30
2018-06-28T09:54:45.144Z,26.70
2018-06-28T10:00:51.413Z,26.90
2018-06-28T10:06:57.406Z,27.40
2018-06-28T10:13:03.263Z,27.20
2018-06-28T10:19:09.319Z,27.30
2018-06-28T10:25:15.314Z,27.80
2018-06-28T10:31:22.241Z,28.20
2018-06-28T10:37:28.547Z,28.00
2018-06-28T10:43:34.796Z,27.50
2018-06-28T10:55:46.390Z,28.00
2018-06-28T11:01:53.598Z,28.20
2018-06-28T11:07:59.498Z,28.30
2018-06-28T11:14:05.476Z,28.10
2018-06-28T11:20:11.253Z,28.30
2018-06-28T11:26:17.084Z,29.30
2018-06-28T11:32:23.680Z,29.60
2018-06-28T11:38:29.369Z,29.50
2018-06-28T11:44:35.063Z,29.40
2018-06-28T11:50:40.854Z,29.60
2018-06-28T11:56:46.733Z,30.30
2018-06-28T12:02:52.523Z,30.40
2018-06-28T12:08:58.287Z,29.60
2018-06-28T12:15:04.222Z,30.50
2018-06-28T12:21:10.055Z,30.10
2018-06-28T12:27:15.820Z,29.80
2018-06-28T12:33:22.602Z,31.00
2018-06-28T12:39:28.509Z,31.00
2018-06-28T12:45:34.265Z,31.50
2018-06-28T12:53:03.985Z,31.30
2018-06-28T12:59:12.163Z,30.40
2018-06-28T13:05:18.293Z,30.70
2018-06-28T13:11:26.011Z,31.60
2018-06-28T13:17:31.822Z,32.10
2018-06-28T13:23:37.906Z,32.00
2018-06-28T13:29:43.599Z,31.80
2018-06-28T13:35:49.803Z,32.40
2018-06-28T13:41:56.120Z,32.40
2018-06-28T13:48:01.789Z,31.90
2018-06-28T13:54:08.091Z,31.40
2018-06-28T14:00:13.777Z,32.10
2018-06-28T14:06:19.958Z,32.90
2018-06-28T14:12:26.333Z,32.70
2018-06-28T14:18:31.966Z,32.20
2018-06-28T14:24:37.752Z,32.40
2018-06-28T14:30:43.481Z,33.20
2018-06-28T14:36:49.173Z,33.40
2018-06-28T14:42:54.857Z,32.40
2018-06-28T14:49:00.582Z,32.70
2018-06-28T14:55:07.012Z,32.60
2018-06-28T15:01:12.954Z,32.60
2018-06-28T15:07:19.093Z,31.30
2018-06-28T15:13:24.721Z,29.30
2018-06-28T15:19:30.372Z,29.80
2018-06-28T15:25:36.260Z,31.50
2018-06-28T15:31:41.928Z,32.30
2018-06-28T15:37:48.086Z,30.40
2018-06-28T15:43:53.997Z,30.70
2018-06-28T15:49:59.738Z,30.00
2018-06-28T15:56:06.439Z,28.90
2018-06-28T16:02:12.127Z,28.40
2018-06-28T16:08:17.834Z,27.80
2018-06-28T16:14:24.109Z,28.80
2018-06-28T16:20:29.853Z,29.50
2018-06-28T16:26:36.258Z,30.20
2018-06-28T16:32:42.181Z,30.60
2018-06-28T16:38:48.200Z,30.70
2018-06-28T16:44:55.307Z,31.10
2018-06-28T16:51:01.076Z,30.20
2018-06-28T16:57:06.984Z,28.60
2018-06-28T17:03:15.939Z,28.50
2018-06-28T17:09:22.303Z,29.70
2018-06-28T17:15:28.027Z,31.10
2018-06-28T17:21:33.849Z,33.00
2018-06-28T17:27:39.717Z,33.80
2018-06-28T17:33:45.773Z,34.40
2018-06-28T17:39:51.989Z,34.70
2018-06-28T17:45:57.950Z,32.80
2018-06-28T17:52:03.897Z,29.80
2018-06-28T17:58:09.560Z,28.80
2018-06-28T18:04:15.254Z,27.50
2018-06-28T18:10:21.091Z,27.00
2018-06-28T18:16:26.790Z,28.00
2018-06-28T18:22:32.450Z,27.40
2018-06-28T18:28:38.337Z,26.80
2018-06-28T18:34:43.971Z,27.10
2018-06-28T18:40:49.682Z,28.20
2018-06-28T18:46:55.685Z,28.50
2018-06-28T18:53:01.493Z,28.90
2018-06-28T18:59:07.176Z,28.20
2018-06-28T19:05:12.918Z,27.20
2018-06-28T19:11:18.736Z,26.50
2018-06-28T19:17:25.365Z,25.80
2018-06-28T19:23:36.081Z,25.40
2018-06-28T19:29:47.418Z,25.00
2018-06-28T19:35:54.265Z,24.60
2018-06-28T19:42:04.968Z,24.40
2018-06-28T19:48:10.646Z,24.10
2018-06-28T19:54:16.412Z,23.70
2018-06-28T20:00:27.821Z,23.50
2018-06-28T20:06:33.555Z,23.30
2018-06-28T20:12:44.757Z,23.10
2018-06-28T20:18:56.217Z,22.90
2018-06-28T20:25:02.105Z,22.70
2018-06-28T20:31:13.176Z,22.40
2018-06-28T20:37:19.445Z,22.10
2018-06-28T20:43:26.475Z,22.00
2018-06-28T20:49:32.348Z,21.80
2018-06-28T20:55:38.260Z,21.80
2018-06-28T21:01:43.954Z,21.70
2018-06-28T21:07:49.811Z,21.70
2018-06-28T21:13:55.826Z,21.70
2018-06-28T21:20:01.623Z,21.70
2018-06-28T21:26:07.413Z,21.60
2018-06-28T21:32:13.208Z,21.60
2018-06-28T21:38:18.913Z,21.40
2018-06-28T21:44:26.135Z,21.30
2018-06-28T21:50:31.952Z,21.20
2018-06-28T21:56:37.668Z,21.20
2018-06-28T22:02:43.475Z,21.00
2018-06-28T22:08:49.530Z,20.80
2018-06-28T22:14:55.515Z,20.50
2018-06-28T22:21:01.168Z,20.10
2018-06-28T22:33:12.327Z,19.80
2018-06-28T22:39:18.181Z,19.70
2018-06-28T22:45:24.846Z,19.40
2018-06-28T22:51:30.540Z,19.30
2018-06-28T22:57:36.257Z,19.10
2018-06-28T23:03:42.038Z,18.80
2018-06-28T23:09:47.833Z,18.60
2018-06-28T23:15:54.051Z,18.50
2018-06-28T23:21:59.725Z,18.30
2018-06-28T23:28:05.491Z,18.00
2018-06-28T23:34:11.390Z,17.80
2018-06-28T23:40:17.150Z,17.60
2018-06-28T23:46:23.691Z,17.40
2018-06-28T23:52:29.434Z,17.20
2018-06-28T23:58:35.476Z,17.10
